Time;durP1;ratioP1;P1;durP2;ratioP2;P2;SDS_P1;SDS_P2;PMS_P1;PMS_P2;Temp;Humidity;BMP_temperature;BMP_pressure;BME280_temperature;BME280_humidity;BME280_pressure;Samples;Min_cycle;Max_cycle;Signal;HPM_P1;HPM_P2
2023/09/05 00:01:45;;;;;;;19.85;13.60;;;17.30;99.90;;;;;;5106745;28;20082;-67
2023/09/05 00:04:13;;;;;;;21.02;13.68;;;17.30;99.90;;;;;;5114481;28;20364;-67
2023/09/05 00:06:39;;;;;;;18.50;13.40;;;17.30;99.90;;;;;;5112934;28;20443;-68
2023/09/05 00:09:05;;;;;;;36.60;32.17;;;17.30;99.90;;;;;;5102327;28;20111;-68
2023/09/05 00:11:31;;;;;;;19.48;14.10;;;17.20;99.90;;;;;;5107891;28;20122;-66
2023/09/05 00:13:57;;;;;;;18.80;13.95;;;17.20;99.90;;;;;;5108078;28;20031;-66
2023/09/05 00:16:22;;;;;;;19.75;13.43;;;17.20;99.90;;;;;;5101629;28;20039;-65
2023/09/05 00:18:49;;;;;;;21.58;14.25;;;17.20;99.90;;;;;;5099805;28;20043;-67
2023/09/05 00:21:18;;;;;;;19.85;13.07;;;17.10;99.90;;;;;;5108406;28;20459;-67
2023/09/05 00:23:46;;;;;;;19.33;14.18;;;17.10;99.90;;;;;;5105393;28;20024;-67
2023/09/05 00:26:14;;;;;;;19.33;14.25;;;17.10;99.90;;;;;;5105124;28;20039;-66
2023/09/05 00:28:43;;;;;;;20.05;14.35;;;17.10;99.90;;;;;;5107230;28;20467;-66
2023/09/05 00:31:14;;;;;;;21.13;15.13;;;17.10;99.90;;;;;;5114946;28;20023;-67
2023/09/05 00:33:39;;;;;;;22.02;14.73;;;17.10;99.90;;;;;;5104128;28;20024;-65
2023/09/05 00:36:05;;;;;;;20.13;14.60;;;17.10;99.90;;;;;;5110515;28;20023;-66
2023/09/05 00:38:33;;;;;;;19.70;14.70;;;17.10;99.90;;;;;;5103170;28;20043;-67
2023/09/05 00:41:00;;;;;;;20.52;14.70;;;17.10;99.90;;;;;;5105684;28;20020;-65
2023/09/05 00:43:26;;;;;;;21.58;15.02;;;17.00;99.90;;;;;;5112238;28;20375;-67
2023/09/05 00:45:56;;;;;;;20.67;14.48;;;17.10;99.90;;;;;;5099588;28;20032;-67
2023/09/05 00:48:28;;;;;;;20.92;14.63;;;17.10;99.90;;;;;;5110209;28;20016;-66
2023/09/05 00:50:56;;;;;;;20.25;14.45;;;17.10;99.90;;;;;;5121475;27;20020;-67
2023/09/05 00:53:26;;;;;;;21.52;14.48;;;17.10;99.90;;;;;;5110859;28;20051;-68
2023/09/05 00:55:52;;;;;;;21.52;14.32;;;17.20;99.90;;;;;;5099784;28;20035;-67
2023/09/05 00:58:21;;;;;;;19.52;13.45;;;17.20;99.90;;;;;;5103198;28;20024;-66
2023/09/05 01:00:47;;;;;;;20.40;14.88;;;17.20;99.90;;;;;;5105195;28;20054;-66
2023/09/05 01:03:12;;;;;;;20.83;13.73;;;17.20;99.90;;;;;;5105267;28;20034;-67
2023/09/05 01:05:44;;;;;;;20.00;14.02;;;17.20;99.90;;;;;;5110673;28;20039;-67
2023/09/05 01:08:17;;;;;;;20.55;14.85;;;17.20;99.90;;;;;;5101941;28;20058;-67
2023/09/05 01:10:58;;;;;;;19.42;13.95;;;17.20;99.90;;;;;;5106736;28;20066;-67
2023/09/05 01:13:25;;;;;;;20.52;14.18;;;17.20;99.90;;;;;;5104656;28;20024;-67
2023/09/05 01:15:51;;;;;;;19.95;13.93;;;17.20;99.90;;;;;;5102045;28;20523;-67
2023/09/05 01:18:17;;;;;;;21.08;14.13;;;17.20;99.90;;;;;;5102627;28;20412;-67
2023/09/05 01:21:15;;;;;;;20.58;13.93;;;17.20;99.90;;;;;;5112008;28;20036;-66
2023/09/05 01:24:09;;;;;;;20.20;13.95;;;17.20;99.90;;;;;;5106105;28;20034;-66
2023/09/05 01:26:34;;;;;;;19.45;13.05;;;17.20;99.90;;;;;;5106418;28;20055;-66
2023/09/05 01:29:01;;;;;;;20.85;13.85;;;17.20;99.90;;;;;;5113837;28;20036;-67
2023/09/05 01:31:27;;;;;;;19.23;13.80;;;17.20;99.90;;;;;;5098099;28;20067;-65
2023/09/05 01:33:53;;;;;;;19.08;13.77;;;17.10;99.90;;;;;;5106643;28;20119;-67
2023/09/05 01:36:19;;;;;;;20.38;13.95;;;17.10;99.90;;;;;;5113171;28;20034;-67
2023/09/05 01:38:44;;;;;;;19.70;13.63;;;17.10;99.90;;;;;;5100956;28;20096;-67
2023/09/05 01:41:12;;;;;;;20.23;13.90;;;17.10;99.90;;;;;;5108959;28;20028;-66
2023/09/05 01:43:37;;;;;;;20.02;13.73;;;17.10;99.90;;;;;;5110501;28;20085;-66
2023/09/05 01:46:03;;;;;;;20.95;13.68;;;17.20;99.90;;;;;;5113988;28;20478;-66
2023/09/05 01:48:29;;;;;;;19.05;13.15;;;17.10;99.90;;;;;;5113716;28;20027;-66
2023/09/05 01:50:54;;;;;;;19.88;14.55;;;17.10;99.90;;;;;;5112378;28;20550;-66
2023/09/05 01:53:21;;;;;;;20.05;14.25;;;17.00;99.90;;;;;;5101555;28;20036;-67
2023/09/05 01:55:47;;;;;;;22.38;14.60;;;17.00;99.90;;;;;;5113689;27;20028;-65
2023/09/05 01:58:12;;;;;;;23.67;13.75;;;17.00;99.90;;;;;;5109027;28;20024;-66
2023/09/05 02:00:38;;;;;;;21.40;14.30;;;16.90;99.90;;;;;;5113514;28;20063;-66
2023/09/05 02:03:03;;;;;;;18.83;13.93;;;16.90;99.90;;;;;;5112091;28;20035;-66
2023/09/05 02:05:29;;;;;;;23.73;14.73;;;16.90;99.90;;;;;;5098751;28;20046;-67
2023/09/05 02:07:58;;;;;;;21.92;14.90;;;16.80;99.90;;;;;;5108704;28;20044;-66
2023/09/05 02:10:24;;;;;;;20.70;14.30;;;16.90;99.90;;;;;;5100339;28;20027;-66
2023/09/05 02:12:50;;;;;;;21.58;15.27;;;16.90;99.90;;;;;;5112299;28;20080;-67
2023/09/05 02:15:15;;;;;;;20.95;14.77;;;16.90;99.90;;;;;;5107250;28;20039;-66
2023/09/05 02:17:41;;;;;;;20.90;15.07;;;16.90;99.90;;;;;;5098195;28;20032;-66
2023/09/05 02:20:07;;;;;;;21.58;15.13;;;16.90;99.90;;;;;;5109746;28;20023;-67
2023/09/05 02:22:33;;;;;;;20.10;14.35;;;17.00;99.90;;;;;;5112042;28;20032;-67
2023/09/05 02:25:01;;;;;;;19.40;14.32;;;17.00;99.90;;;;;;5105733;28;20128;-66
2023/09/05 02:27:27;;;;;;;23.90;14.13;;;17.00;99.90;;;;;;5095982;28;20468;-66
2023/09/05 02:29:59;;;;;;;19.92;13.35;;;17.00;99.90;;;;;;5113145;28;20027;-66
2023/09/05 02:32:24;;;;;;;20.70;14.27;;;17.00;99.90;;;;;;5109222;28;20497;-67
2023/09/05 02:34:52;;;;;;;21.52;14.15;;;17.10;99.90;;;;;;5110669;28;20260;-67
2023/09/05 02:37:18;;;;;;;20.85;14.00;;;17.10;99.90;;;;;;5113363;28;20386;-67
2023/09/05 02:39:44;;;;;;;20.17;12.68;;;17.10;99.90;;;;;;5099751;28;20046;-67
2023/09/05 02:42:09;;;;;;;21.00;13.70;;;17.10;99.90;;;;;;5105693;28;20379;-67
2023/09/05 02:44:35;;;;;;;20.10;13.57;;;17.10;99.90;;;;;;5110160;28;20127;-65
2023/09/05 02:47:01;;;;;;;21.25;13.70;;;17.10;99.90;;;;;;5104420;28;20030;-67
2023/09/05 02:49:26;;;;;;;18.13;12.68;;;17.10;99.90;;;;;;5106508;28;20485;-65
2023/09/05 02:51:52;;;;;;;22.05;13.82;;;17.10;99.90;;;;;;5106956;28;20028;-67
2023/09/05 02:54:17;;;;;;;20.70;14.05;;;17.10;99.90;;;;;;5112573;28;20039;-65
2023/09/05 02:56:43;;;;;;;22.52;14.13;;;17.10;99.90;;;;;;5101832;28;20078;-67
2023/09/05 02:59:09;;;;;;;21.13;14.00;;;17.10;99.90;;;;;;5101823;28;20028;-66
2023/09/05 03:01:34;;;;;;;20.55;14.45;;;17.10;99.90;;;;;;5105593;28;20374;-66
2023/09/05 03:04:00;;;;;;;23.20;15.63;;;17.10;99.90;;;;;;5100768;28;20419;-66
2023/09/05 03:06:25;;;;;;;22.70;15.88;;;17.10;99.90;;;;;;5105131;28;20040;-67
2023/09/05 03:08:51;;;;;;;23.15;15.20;;;17.10;99.90;;;;;;5110342;28;20047;-66
2023/09/05 03:11:21;;;;;;;24.02;15.35;;;17.10;99.90;;;;;;5103524;28;20027;-66
2023/09/05 03:13:47;;;;;;;23.65;15.25;;;17.10;99.90;;;;;;5103206;28;20036;-65
2023/09/05 03:16:14;;;;;;;24.42;16.00;;;17.10;99.90;;;;;;5110852;28;20441;-66
2023/09/05 03:18:39;;;;;;;22.38;15.18;;;17.00;99.90;;;;;;5099455;28;20456;-66
2023/09/05 03:21:05;;;;;;;22.13;15.98;;;17.00;99.90;;;;;;5104984;28;20059;-66
2023/09/05 03:23:31;;;;;;;25.08;16.23;;;17.00;99.90;;;;;;5101870;28;20023;-67
2023/09/05 03:25:57;;;;;;;24.27;15.95;;;17.00;99.90;;;;;;5104162;28;20078;-66
2023/09/05 03:28:23;;;;;;;22.92;16.85;;;17.00;99.90;;;;;;5104087;28;20463;-66
2023/09/05 03:30:48;;;;;;;21.77;15.45;;;16.90;99.90;;;;;;5111647;28;20019;-66
2023/09/05 03:33:14;;;;;;;25.30;16.55;;;17.00;99.90;;;;;;5104441;28;20027;-65
2023/09/05 03:35:42;;;;;;;23.35;16.65;;;17.00;99.90;;;;;;5101926;28;20043;-66
2023/09/05 03:38:07;;;;;;;22.88;16.30;;;16.90;99.90;;;;;;5101331;28;20103;-66
2023/09/05 03:40:34;;;;;;;25.38;16.52;;;16.90;99.90;;;;;;5104298;28;20066;-66
2023/09/05 03:43:00;;;;;;;22.95;15.73;;;16.90;99.90;;;;;;5100556;28;20099;-66
2023/09/05 03:45:27;;;;;;;21.58;14.77;;;16.90;99.90;;;;;;5104462;28;20161;-65
2023/09/05 03:47:53;;;;;;;21.25;14.55;;;16.80;99.90;;;;;;5105922;28;20028;-65
2023/09/05 03:50:20;;;;;;;22.00;15.57;;;16.80;99.90;;;;;;5103923;28;20034;-65
2023/09/05 03:52:46;;;;;;;22.88;15.52;;;16.70;99.90;;;;;;5112889;28;20035;-65
2023/09/05 03:55:13;;;;;;;20.30;14.70;;;16.70;99.90;;;;;;5108122;28;20028;-66
2023/09/05 03:57:38;;;;;;;23.13;15.32;;;16.70;99.90;;;;;;5103480;28;20059;-66
2023/09/05 04:00:07;;;;;;;20.70;13.98;;;16.70;99.90;;;;;;5108359;28;20028;-66
2023/09/05 04:02:33;;;;;;;21.73;14.85;;;16.70;99.90;;;;;;5106128;28;20122;-65
2023/09/05 04:04:58;;;;;;;23.85;14.95;;;16.60;99.90;;;;;;5111962;28;20131;-66
2023/09/05 04:07:24;;;;;;;23.92;15.88;;;16.70;99.90;;;;;;5113245;28;20110;-66
2023/09/05 04:09:49;;;;;;;22.65;15.45;;;16.70;99.90;;;;;;5100000;28;20143;-67
2023/09/05 04:12:15;;;;;;;21.77;14.27;;;16.60;99.90;;;;;;5108301;28;20028;-66
2023/09/05 04:14:41;;;;;;;22.98;15.90;;;16.60;99.90;;;;;;5107242;28;20032;-65
2023/09/05 04:17:06;;;;;;;23.30;16.08;;;16.60;99.90;;;;;;5101359;28;20059;-66
2023/09/05 04:19:32;;;;;;;22.98;16.15;;;16.60;99.90;;;;;;5112636;28;20059;-64
2023/09/05 04:21:58;;;;;;;22.40;16.25;;;16.60;99.90;;;;;;5098829;28;20035;-65
2023/09/05 04:24:23;;;;;;;25.45;18.38;;;16.60;99.90;;;;;;5103762;28;20024;-66
2023/09/05 04:26:50;;;;;;;24.50;17.48;;;16.60;99.90;;;;;;5112562;28;20028;-67
2023/09/05 04:29:16;;;;;;;25.13;17.80;;;16.60;99.90;;;;;;5112465;28;20027;-66
2023/09/05 04:31:42;;;;;;;25.40;17.75;;;16.60;99.90;;;;;;5112927;28;20365;-66
2023/09/05 04:34:07;;;;;;;24.33;17.52;;;16.60;99.90;;;;;;5102622;28;20157;-66
2023/09/05 04:36:36;;;;;;;23.95;16.30;;;16.60;99.90;;;;;;5105267;28;20054;-66
2023/09/05 04:39:03;;;;;;;24.15;16.65;;;16.60;99.90;;;;;;5110262;28;20032;-66
2023/09/05 04:41:28;;;;;;;21.48;14.43;;;16.50;99.90;;;;;;5097959;28;20039;-65
2023/09/05 04:43:54;;;;;;;27.10;15.20;;;16.50;99.90;;;;;;5082113;28;20032;-66
2023/09/05 04:46:19;;;;;;;21.00;14.63;;;16.50;99.90;;;;;;5103863;28;20067;-66
2023/09/05 04:48:45;;;;;;;22.65;15.57;;;16.50;99.90;;;;;;5103452;28;20016;-64
2023/09/05 04:51:11;;;;;;;23.17;15.25;;;16.50;99.90;;;;;;5110776;28;20390;-67
2023/09/05 04:53:36;;;;;;;22.30;15.32;;;16.50;99.90;;;;;;5107248;28;20027;-66
2023/09/05 04:56:03;;;;;;;20.92;15.18;;;16.50;99.90;;;;;;5109559;28;20448;-65
2023/09/05 04:58:30;;;;;;;24.20;16.50;;;16.40;99.90;;;;;;5094284;28;20032;-65
2023/09/05 05:00:56;;;;;;;22.27;15.25;;;16.40;99.90;;;;;;5110541;28;20520;-67
2023/09/05 05:03:24;;;;;;;22.50;15.65;;;16.40;99.90;;;;;;5115010;28;20357;-65
2023/09/05 05:05:50;;;;;;;22.38;15.90;;;16.40;99.90;;;;;;5111130;28;20043;-65
2023/09/05 05:08:15;;;;;;;21.88;14.93;;;16.40;99.90;;;;;;5101265;28;20072;-65
2023/09/05 05:10:41;;;;;;;23.75;15.70;;;16.40;99.90;;;;;;5114415;28;20028;-65
2023/09/05 05:13:06;;;;;;;21.85;15.88;;;16.40;99.90;;;;;;5105843;28;20031;-65
2023/09/05 05:15:32;;;;;;;23.30;15.43;;;16.40;99.90;;;;;;5114534;28;20077;-65
2023/09/05 05:17:58;;;;;;;21.60;15.98;;;16.40;99.90;;;;;;5108291;28;20528;-65
2023/09/05 05:20:24;;;;;;;23.45;15.18;;;16.40;99.90;;;;;;5106529;28;20027;-65
2023/09/05 05:22:50;;;;;;;21.42;14.52;;;16.40;99.90;;;;;;5112022;28;20467;-65
2023/09/05 05:25:16;;;;;;;23.15;14.73;;;16.40;99.90;;;;;;5114491;28;20020;-66
2023/09/05 05:27:41;;;;;;;23.48;14.57;;;16.50;99.90;;;;;;5102593;28;20039;-65
2023/09/05 05:30:08;;;;;;;23.33;14.38;;;16.50;99.90;;;;;;5097752;28;20016;-65
2023/09/05 05:32:34;;;;;;;23.27;14.23;;;16.50;99.90;;;;;;5111081;28;20023;-65
2023/09/05 05:35:12;;;;;;;21.67;13.77;;;16.50;99.90;;;;;;5099984;28;20152;-67
2023/09/05 05:37:38;;;;;;;21.15;12.98;;;16.60;99.90;;;;;;5113692;28;20031;-66
2023/09/05 05:40:04;;;;;;;20.60;13.10;;;16.60;99.90;;;;;;5112185;28;20016;-66
2023/09/05 05:42:30;;;;;;;18.83;12.02;;;16.70;99.90;;;;;;5097457;28;20036;-66
2023/09/05 05:44:55;;;;;;;19.77;12.63;;;16.70;99.90;;;;;;5108350;28;20044;-65
2023/09/05 05:47:22;;;;;;;17.98;12.65;;;16.70;99.90;;;;;;5102359;28;20019;-66
2023/09/05 05:49:48;;;;;;;18.67;12.15;;;16.80;99.90;;;;;;5100801;28;20039;-65
2023/09/05 05:52:13;;;;;;;24.08;11.38;;;16.90;99.90;;;;;;5108903;28;20024;-66
2023/09/05 05:54:39;;;;;;;19.65;11.73;;;16.90;99.90;;;;;;5100904;28;20467;-66
2023/09/05 05:57:05;;;;;;;17.23;10.93;;;17.00;99.90;;;;;;5107704;28;20036;-65
2023/09/05 05:59:30;;;;;;;20.15;11.63;;;17.00;99.90;;;;;;5104216;28;20024;-65
2023/09/05 06:01:56;;;;;;;19.05;11.90;;;17.10;99.90;;;;;;5114451;28;20028;-66
2023/09/05 06:04:23;;;;;;;19.52;11.30;;;17.20;99.90;;;;;;5097073;28;20050;-66
2023/09/05 06:06:49;;;;;;;16.75;10.10;;;17.30;99.90;;;;;;5109074;28;20020;-66
2023/09/05 06:09:18;;;;;;;19.20;9.95;;;17.30;99.90;;;;;;5100251;28;20452;-66
2023/09/05 06:11:44;;;;;;;15.80;9.98;;;17.40;99.90;;;;;;5107564;28;20031;-65
2023/09/05 06:14:09;;;;;;;13.40;8.82;;;17.50;99.90;;;;;;5098128;28;20074;-65
2023/09/05 06:16:35;;;;;;;14.27;8.63;;;17.60;99.90;;;;;;5112472;28;20027;-66
2023/09/05 06:19:01;;;;;;;13.55;7.95;;;17.60;99.90;;;;;;5107272;28;20425;-66
2023/09/05 06:21:26;;;;;;;12.15;8.23;;;17.70;99.90;;;;;;5103135;28;20028;-65
2023/09/05 06:23:52;;;;;;;12.73;7.28;;;17.80;99.90;;;;;;5108265;28;20030;-66
2023/09/05 06:26:17;;;;;;;10.65;6.32;;;17.90;99.90;;;;;;5113643;28;20039;-67
2023/09/05 06:28:43;;;;;;;9.02;5.32;;;18.00;99.90;;;;;;5114330;28;20023;-65
2023/09/05 06:31:08;;;;;;;8.95;5.72;;;18.10;99.90;;;;;;5113995;28;20108;-64
2023/09/05 06:33:34;;;;;;;10.05;5.65;;;18.30;99.90;;;;;;5113430;28;20103;-65
2023/09/05 06:36:07;;;;;;;9.23;5.60;;;18.40;99.90;;;;;;5112684;28;20031;-65
2023/09/05 06:38:33;;;;;;;10.55;5.75;;;18.50;99.90;;;;;;5106605;28;20020;-65
2023/09/05 06:41:06;;;;;;;8.77;5.00;;;18.60;99.90;;;;;;5111558;28;20043;-67
2023/09/05 06:43:35;;;;;;;9.02;5.20;;;18.70;99.90;;;;;;5112379;28;20028;-66
2023/09/05 06:46:05;;;;;;;9.32;5.45;;;18.80;99.90;;;;;;5111520;28;20049;-65
2023/09/05 06:48:31;;;;;;;7.45;4.90;;;19.00;99.90;;;;;;5108667;28;20020;-66
2023/09/05 06:50:58;;;;;;;10.02;5.10;;;19.10;99.90;;;;;;5101148;28;20499;-65
2023/09/05 06:53:24;;;;;;;8.75;5.28;;;19.30;99.90;;;;;;5101836;28;20031;-66
2023/09/05 06:55:51;;;;;;;11.02;5.00;;;19.40;99.90;;;;;;5108413;28;20119;-66
2023/09/05 06:58:18;;;;;;;10.18;4.88;;;19.50;99.90;;;;;;5110966;28;20031;-65
2023/09/05 07:00:43;;;;;;;10.65;4.82;;;19.70;99.90;;;;;;5112371;28;20039;-65
2023/09/05 07:03:10;;;;;;;7.78;4.68;;;19.80;99.90;;;;;;5103400;28;20036;-66
2023/09/05 07:05:39;;;;;;;10.32;5.13;;;19.90;99.90;;;;;;5105734;28;20390;-65
2023/09/05 07:08:05;;;;;;;9.80;4.63;;;20.10;99.90;;;;;;5096167;28;20052;-65
2023/09/05 07:10:31;;;;;;;11.32;5.05;;;20.20;99.90;;;;;;5108514;28;20080;-66
2023/09/05 07:12:57;;;;;;;12.27;5.22;;;20.30;99.90;;;;;;5101174;28;20130;-66
2023/09/05 07:15:23;;;;;;;8.55;4.90;;;20.40;99.90;;;;;;5101540;28;20116;-66
2023/09/05 07:17:49;;;;;;;9.10;4.63;;;20.50;99.90;;;;;;5107838;28;20031;-66
2023/09/05 07:20:15;;;;;;;8.30;4.47;;;20.70;99.90;;;;;;5097782;28;20043;-66
2023/09/05 07:22:41;;;;;;;8.65;4.78;;;20.90;99.90;;;;;;5111736;28;20024;-66
2023/09/05 07:25:07;;;;;;;7.25;4.45;;;21.20;99.90;;;;;;5106271;28;20027;-66
2023/09/05 07:27:32;;;;;;;8.75;4.32;;;21.70;99.90;;;;;;5103846;28;20100;-66
2023/09/05 07:29:58;;;;;;;9.05;3.67;;;22.20;99.90;;;;;;5113379;28;20061;-67
2023/09/05 07:32:24;;;;;;;5.50;3.83;;;22.70;99.90;;;;;;5099608;28;20060;-66
2023/09/05 07:34:49;;;;;;;7.93;4.30;;;23.20;99.90;;;;;;5116007;28;20055;-67
2023/09/05 07:37:16;;;;;;;8.52;4.63;;;23.80;99.90;;;;;;5106618;28;20053;-67
2023/09/05 07:39:45;;;;;;;9.00;4.05;;;24.50;99.90;;;;;;5110891;28;20098;-67
2023/09/05 07:42:10;;;;;;;7.72;4.25;;;25.50;99.90;;;;;;5098654;28;20034;-67
2023/09/05 07:44:36;;;;;;;7.25;3.92;;;26.40;99.10;;;;;;5111330;28;20044;-66
2023/09/05 07:47:01;;;;;;;6.55;3.70;;;27.30;98.20;;;;;;5108937;28;20138;-66
2023/09/05 07:49:27;;;;;;;7.97;3.83;;;28.10;96.90;;;;;;5116278;28;20027;-67
2023/09/05 07:51:54;;;;;;;9.50;4.10;;;28.80;95.30;;;;;;5116282;28;20023;-66
2023/09/05 07:54:20;;;;;;;5.40;3.38;;;29.50;94.60;;;;;;5113459;28;20032;-66
2023/09/05 07:56:46;;;;;;;6.68;3.58;;;30.30;93.90;;;;;;5109836;28;20158;-66
2023/09/05 07:59:11;;;;;;;7.72;3.42;;;31.20;92.90;;;;;;5106403;28;20051;-66
2023/09/05 08:01:37;;;;;;;7.47;3.65;;;32.00;92.10;;;;;;5102840;28;20569;-67
2023/09/05 08:04:04;;;;;;;6.50;3.13;;;32.70;91.30;;;;;;5112458;28;20061;-67
2023/09/05 08:06:29;;;;;;;8.52;3.78;;;33.50;90.50;;;;;;5112098;28;20028;-68
2023/09/05 08:08:55;;;;;;;10.73;4.20;;;34.00;88.70;;;;;;5113559;28;20055;-66
2023/09/05 08:11:20;;;;;;;7.63;3.78;;;34.30;87.10;;;;;;5116284;28;20306;-67
2023/09/05 08:13:46;;;;;;;7.93;3.58;;;34.50;87.50;;;;;;5101276;28;20055;-67
2023/09/05 08:16:11;;;;;;;4.90;3.35;;;34.90;85.90;;;;;;5112721;28;20059;-67
2023/09/05 08:18:37;;;;;;;8.00;3.58;;;35.10;85.30;;;;;;5101012;28;20023;-66
2023/09/05 08:21:04;;;;;;;11.55;3.65;;;35.20;84.80;;;;;;5107297;28;20081;-68
2023/09/05 08:23:30;;;;;;;6.32;2.95;;;35.40;84.60;;;;;;5094186;28;20062;-66
2023/09/05 08:25:57;;;;;;;8.27;3.30;;;35.80;84.20;;;;;;5099049;28;20067;-66
2023/09/05 08:28:26;;;;;;;6.95;3.78;;;36.40;83.00;;;;;;5112677;28;20031;-67
2023/09/05 08:30:59;;;;;;;6.47;3.42;;;36.80;82.10;;;;;;5102634;28;20071;-67
2023/09/05 08:33:24;;;;;;;6.40;3.40;;;36.90;81.30;;;;;;5103684;28;20048;-67
2023/09/05 08:35:50;;;;;;;7.63;3.22;;;36.70;80.70;;;;;;5110984;28;20062;-67
2023/09/05 08:38:16;;;;;;;5.50;3.20;;;36.80;81.10;;;;;;5098395;28;20020;-67
2023/09/05 08:40:45;;;;;;;9.57;3.40;;;37.20;80.40;;;;;;5109829;28;20024;-69
2023/09/05 08:43:11;;;;;;;6.05;3.28;;;37.60;79.60;;;;;;5113665;28;20083;-68
2023/09/05 08:45:39;;;;;;;7.63;2.83;;;37.80;79.40;;;;;;5106154;28;20039;-67
2023/09/05 08:48:05;;;;;;;4.97;2.72;;;38.10;78.90;;;;;;5112368;28;20023;-67
2023/09/05 08:50:33;;;;;;;4.72;3.20;;;38.50;78.20;;;;;;5093907;28;20443;-67
2023/09/05 08:53:02;;;;;;;5.70;2.80;;;38.90;76.70;;;;;;5109096;28;20130;-66
2023/09/05 08:55:29;;;;;;;7.22;3.10;;;38.90;76.80;;;;;;5115219;28;20059;-67
2023/09/05 08:57:55;;;;;;;6.90;3.40;;;39.00;76.20;;;;;;5115610;28;20030;-66
2023/09/05 09:00:21;;;;;;;8.73;3.40;;;39.00;75.70;;;;;;5115091;28;20024;-67
2023/09/05 09:02:47;;;;;;;8.95;3.22;;;38.80;75.70;;;;;;5114645;28;20024;-67
2023/09/05 09:05:13;;;;;;;8.75;3.28;;;38.80;75.80;;;;;;5115812;28;20493;-66
2023/09/05 09:07:39;;;;;;;5.13;2.78;;;38.60;75.80;;;;;;5115364;28;20030;-66
2023/09/05 09:10:21;;;;;;;5.00;2.97;;;38.70;75.90;;;;;;5115846;28;20066;-66
2023/09/05 09:12:54;;;;;;;8.70;3.10;;;38.90;75.20;;;;;;5114173;28;20023;-67
2023/09/05 09:15:24;;;;;;;6.38;2.92;;;38.90;75.10;;;;;;5114553;28;20034;-68
2023/09/05 09:17:50;;;;;;;4.68;3.20;;;38.90;74.90;;;;;;5115302;28;20042;-67
2023/09/05 09:20:18;;;;;;;5.97;2.92;;;38.70;75.40;;;;;;5106658;28;20085;-66
2023/09/05 09:22:44;;;;;;;5.20;2.63;;;38.70;75.60;;;;;;5094689;28;20032;-66
2023/09/05 09:25:14;;;;;;;6.05;2.80;;;39.20;74.90;;;;;;5094258;28;20059;-67
2023/09/05 09:27:44;;;;;;;5.95;3.25;;;39.70;74.20;;;;;;5094993;28;20059;-67
2023/09/05 09:30:11;;;;;;;7.90;3.67;;;40.00;74.40;;;;;;5094895;28;20032;-66
2023/09/05 09:32:38;;;;;;;6.88;3.15;;;40.70;73.80;;;;;;5103905;28;20027;-66
2023/09/05 09:35:10;;;;;;;3.47;2.50;;;41.10;73.10;;;;;;5110163;28;20041;-66
2023/09/05 09:37:35;;;;;;;5.40;3.63;;;41.10;72.40;;;;;;5114727;28;20094;-69
2023/09/05 09:40:06;;;;;;;7.47;3.47;;;41.00;72.80;;;;;;5114728;28;20522;-67
2023/09/05 09:42:33;;;;;;;5.60;3.10;;;41.50;72.70;;;;;;5114713;28;20023;-67
2023/09/05 09:44:59;;;;;;;5.82;2.80;;;41.80;71.80;;;;;;5113829;28;20039;-68
2023/09/05 09:47:28;;;;;;;6.35;2.90;;;41.90;71.60;;;;;;5114198;28;20114;-67
2023/09/05 09:49:53;;;;;;;6.90;3.13;;;42.20;71.10;;;;;;5114457;28;20063;-66
2023/09/05 09:52:20;;;;;;;6.47;3.30;;;42.50;70.80;;;;;;5114089;28;20515;-67
2023/09/05 09:54:47;;;;;;;5.25;2.80;;;42.80;70.80;;;;;;5114737;27;20023;-66
2023/09/05 09:57:27;;;;;;;5.55;2.67;;;43.20;69.90;;;;;;5114717;28;20052;-67
2023/09/05 09:59:59;;;;;;;5.60;2.80;;;43.50;69.70;;;;;;5109649;28;20078;-68
2023/09/05 10:02:25;;;;;;;5.22;3.00;;;44.00;69.00;;;;;;5099734;28;20307;-68
2023/09/05 10:04:51;;;;;;;5.03;2.78;;;44.20;68.50;;;;;;5094775;28;20480;-67
2023/09/05 10:07:19;;;;;;;7.13;2.92;;;44.10;68.00;;;;;;5114297;28;20228;-69
2023/09/05 10:09:45;;;;;;;5.90;3.00;;;43.90;68.00;;;;;;5107043;28;20429;-67
2023/09/05 10:12:11;;;;;;;5.55;2.55;;;44.00;68.20;;;;;;5106084;28;20123;-66
2023/09/05 10:14:38;;;;;;;5.95;2.80;;;44.10;68.00;;;;;;5097729;28;20024;-67
2023/09/05 10:17:05;;;;;;;6.47;2.70;;;44.20;68.30;;;;;;5096687;28;20535;-67
2023/09/05 10:19:32;;;;;;;4.20;2.60;;;44.60;67.30;;;;;;5113662;28;20076;-68
2023/09/05 10:21:58;;;;;;;5.88;2.90;;;45.10;66.80;;;;;;5102694;28;20042;-67
2023/09/05 10:24:32;;;;;;;6.25;2.53;;;45.50;66.50;;;;;;5108158;28;20032;-67
2023/09/05 10:26:58;;;;;;;5.80;2.75;;;45.70;66.40;;;;;;5096485;28;20032;-68
2023/09/05 10:29:41;;;;;;;5.40;2.53;;;45.90;65.80;;;;;;5106979;28;20384;-68
2023/09/05 10:32:07;;;;;;;5.28;2.40;;;45.80;65.10;;;;;;5105940;28;20047;-67
2023/09/05 10:34:47;;;;;;;6.35;2.40;;;45.60;65.20;;;;;;5097420;28;20134;-67
2023/09/05 10:37:35;;;;;;;4.18;2.70;;;45.60;64.80;;;;;;5097981;28;20523;-68
2023/09/05 10:40:08;;;;;;;5.32;2.63;;;45.20;64.90;;;;;;5101849;28;20471;-68
2023/09/05 10:42:35;;;;;;;5.97;2.40;;;45.00;65.10;;;;;;5108830;28;20057;-67
2023/09/05 10:45:17;;;;;;;3.72;2.50;;;44.90;64.70;;;;;;5108252;28;20031;-68
2023/09/05 10:47:43;;;;;;;5.82;2.85;;;44.60;65.30;;;;;;5104670;28;20035;-67
2023/09/05 10:50:10;;;;;;;5.88;2.38;;;44.60;65.40;;;;;;5105614;28;20378;-66
2023/09/05 10:52:36;;;;;;;4.85;2.58;;;44.60;65.00;;;;;;5096732;28;20028;-69
2023/09/05 10:55:29;;;;;;;6.20;2.53;;;45.00;64.00;;;;;;5108984;28;20034;-68
2023/09/05 10:57:55;;;;;;;4.68;2.33;;;45.10;63.80;;;;;;5103071;28;20034;-67
2023/09/05 11:00:23;;;;;;;5.50;2.63;;;45.10;64.20;;;;;;5112722;28;20033;-67
2023/09/05 11:02:49;;;;;;;6.07;2.97;;;45.00;64.30;;;;;;5113442;28;20494;-67
2023/09/05 11:05:20;;;;;;;4.50;2.63;;;45.00;64.40;;;;;;5112913;28;20028;-67
2023/09/05 11:07:48;;;;;;;3.42;2.47;;;45.10;64.40;;;;;;5106901;28;20063;-68
2023/09/05 11:10:28;;;;;;;5.72;2.60;;;45.00;63.80;;;;;;5093064;28;20055;-68
2023/09/05 11:12:53;;;;;;;3.22;2.63;;;45.00;64.30;;;;;;5093203;28;20034;-68
2023/09/05 11:15:33;;;;;;;8.13;2.88;;;45.10;63.60;;;;;;5092840;28;20028;-67
2023/09/05 11:18:06;;;;;;;5.97;3.00;;;45.00;64.00;;;;;;5106055;28;20479;-67
2023/09/05 11:20:47;;;;;;;5.68;2.30;;;45.20;63.60;;;;;;5113003;28;20019;-67
2023/09/05 11:23:21;;;;;;;3.33;2.50;;;44.90;63.40;;;;;;5113213;28;20032;-69
2023/09/05 11:25:55;;;;;;;4.78;2.60;;;44.70;63.50;;;;;;5112121;28;20383;-68
2023/09/05 11:28:23;;;;;;;3.00;2.08;;;44.60;63.50;;;;;;5113059;28;20424;-68
2023/09/05 11:30:51;;;;;;;5.90;2.88;;;44.40;63.30;;;;;;5113649;28;20036;-69
2023/09/05 11:33:17;;;;;;;6.35;2.67;;;44.40;63.60;;;;;;5113088;28;20036;-67
2023/09/05 11:35:43;;;;;;;6.07;2.50;;;44.20;63.80;;;;;;5113600;28;20027;-68
2023/09/05 11:38:13;;;;;;;7.60;2.53;;;44.10;63.80;;;;;;5113452;28;20081;-68
2023/09/05 11:40:40;;;;;;;3.80;2.17;;;44.20;63.50;;;;;;5112933;28;20547;-68
2023/09/05 11:43:10;;;;;;;6.63;2.85;;;44.50;63.20;;;;;;5113342;28;20291;-68
2023/09/05 11:45:45;;;;;;;4.38;2.60;;;44.80;63.60;;;;;;5112922;28;20127;-68
2023/09/05 11:48:14;;;;;;;6.00;2.38;;;44.80;63.70;;;;;;5108337;28;20043;-68
2023/09/05 11:50:41;;;;;;;6.70;2.38;;;44.80;63.40;;;;;;5092670;28;20107;-70
2023/09/05 11:53:11;;;;;;;3.50;2.80;;;45.00;63.50;;;;;;5093280;28;20414;-69
2023/09/05 11:55:37;;;;;;;4.55;2.25;;;45.30;63.60;;;;;;5092825;28;20033;-70
2023/09/05 11:58:05;;;;;;;8.43;2.60;;;45.40;63.50;;;;;;5092522;28;20031;-70
2023/09/05 12:00:32;;;;;;;6.65;2.90;;;45.70;63.10;;;;;;5092754;28;20465;-70
2023/09/05 12:03:02;;;;;;;4.30;2.58;;;45.60;63.30;;;;;;5093985;28;20028;-69
2023/09/05 12:05:32;;;;;;;4.13;2.35;;;45.20;63.10;;;;;;5101543;28;20377;-69
2023/09/05 12:07:57;;;;;;;6.57;2.80;;;44.90;63.10;;;;;;5114111;28;20096;-69
2023/09/05 12:10:26;;;;;;;3.40;2.38;;;44.50;62.90;;;;;;5116792;28;20024;-68
2023/09/05 12:12:56;;;;;;;2.67;2.25;;;43.90;63.30;;;;;;5115537;28;20125;-68
2023/09/05 12:15:35;;;;;;;3.72;2.05;;;43.30;63.80;;;;;;5116629;28;20036;-68
2023/09/05 12:18:04;;;;;;;3.33;2.60;;;42.90;65.30;;;;;;5116384;28;20024;-68
2023/09/05 12:20:33;;;;;;;5.35;2.38;;;42.90;64.90;;;;;;5116313;28;20126;-69
2023/09/05 12:22:59;;;;;;;5.47;2.92;;;43.10;64.40;;;;;;5115336;28;20036;-68
2023/09/05 12:25:28;;;;;;;3.08;2.22;;;43.00;63.80;;;;;;5115529;28;20426;-69
2023/09/05 12:27:55;;;;;;;6.00;2.53;;;42.90;63.80;;;;;;5107930;28;20411;-68
2023/09/05 12:30:33;;;;;;;5.00;2.60;;;43.00;64.10;;;;;;5101560;28;20024;-69
2023/09/05 12:33:00;;;;;;;6.88;2.40;;;43.30;64.20;;;;;;5116028;28;20032;-68
2023/09/05 12:35:28;;;;;;;3.45;2.30;;;43.40;64.10;;;;;;5114773;28;20076;-69
2023/09/05 12:37:55;;;;;;;5.78;2.60;;;43.50;64.40;;;;;;5114694;28;20511;-68